createdAt,value
2022-10-04T00:00:41.968Z,10.35
2022-10-04T00:03:28.667Z,5.80
2022-10-04T00:05:58.431Z,12.65
2022-10-04T00:08:46.303Z,4.57
2022-10-04T00:11:36.588Z,6.32
2022-10-04T00:14:37.902Z,6.32
2022-10-04T00:17:13.986Z,10.10
2022-10-04T00:19:47.040Z,8.68
2022-10-04T00:22:22.990Z,10.18
2022-10-04T00:25:07.797Z,11.32
2022-10-04T00:27:36.962Z,11.40
2022-10-04T00:30:23.839Z,6.43
2022-10-04T00:33:02.320Z,5.47
2022-10-04T00:35:49.516Z,8.43
2022-10-04T00:38:26.154Z,7.47
2022-10-04T00:40:56.714Z,14.75
2022-10-04T00:43:39.108Z,6.05
2022-10-04T00:46:18.657Z,7.25
2022-10-04T00:48:53.303Z,8.65
2022-10-04T00:51:30.075Z,5.43
2022-10-04T00:54:05.029Z,6.25
2022-10-04T00:56:39.709Z,5.43
2022-10-04T00:59:22.270Z,14.85
2022-10-04T01:01:54.797Z,7.97
2022-10-04T01:07:05.482Z,7.55
2022-10-04T01:09:36.984Z,12.90
2022-10-04T01:12:33.012Z,13.48
2022-10-04T01:15:44.745Z,7.90
2022-10-04T01:18:33.833Z,8.57
2022-10-04T01:21:28.433Z,10.48
2022-10-04T01:24:21.419Z,8.23
2022-10-04T01:29:35.625Z,10.95
2022-10-04T01:32:02.309Z,16.83
2022-10-04T01:34:30.711Z,9.93
2022-10-04T01:37:00.107Z,9.10
2022-10-04T01:39:28.885Z,14.02
2022-10-04T01:42:09.825Z,8.65
2022-10-04T01:44:59.607Z,7.55
2022-10-04T01:47:45.215Z,13.73
2022-10-04T01:50:18.963Z,12.73
2022-10-04T01:52:55.674Z,10.77
2022-10-04T01:55:29.272Z,8.82
2022-10-04T01:58:04.506Z,8.20
2022-10-04T02:00:32.025Z,8.85
2022-10-04T02:03:08.470Z,11.80
2022-10-04T02:05:51.655Z,13.40
2022-10-04T02:08:25.619Z,8.02
2022-10-04T02:10:54.967Z,12.60
2022-10-04T02:13:24.369Z,9.38
2022-10-04T02:15:51.801Z,12.13
2022-10-04T02:18:21.241Z,10.30
2022-10-04T02:20:50.227Z,8.05
2022-10-04T02:23:21.511Z,13.77
2022-10-04T02:25:48.475Z,11.85
2022-10-04T02:28:16.561Z,8.85
2022-10-04T02:31:06.800Z,6.85
2022-10-04T02:33:33.923Z,14.48
2022-10-04T02:36:01.609Z,12.40
2022-10-04T02:38:37.149Z,9.23
2022-10-04T02:41:13.123Z,11.45
2022-10-04T02:43:56.673Z,15.73
2022-10-04T02:46:44.336Z,10.82
2022-10-04T02:49:38.086Z,8.50
2022-10-04T02:52:11.450Z,10.95
2022-10-04T02:54:55.951Z,8.38
2022-10-04T02:57:23.649Z,11.90
2022-10-04T02:59:51.347Z,10.38
2022-10-04T03:02:30.672Z,9.07
2022-10-04T03:05:11.697Z,10.95
2022-10-04T03:07:39.586Z,7.32
2022-10-04T03:10:11.974Z,8.00
2022-10-04T03:12:40.857Z,5.28
2022-10-04T03:15:12.185Z,12.40
2022-10-04T03:17:41.935Z,6.68
2022-10-04T03:20:12.116Z,12.40
2022-10-04T03:22:43.656Z,10.43
2022-10-04T03:25:18.912Z,12.55
2022-10-04T03:27:47.852Z,13.50
2022-10-04T03:30:23.218Z,8.80
2022-10-04T03:32:50.495Z,7.88
2022-10-04T03:35:36.808Z,11.88
2022-10-04T03:38:08.998Z,14.07
2022-10-04T03:40:38.589Z,10.77
2022-10-04T03:43:06.681Z,8.38
2022-10-04T03:45:35.258Z,14.80
2022-10-04T03:48:06.882Z,7.47
2022-10-04T03:50:39.271Z,11.65
2022-10-04T03:53:22.478Z,10.40
2022-10-04T03:55:49.112Z,8.63
2022-10-04T03:58:18.446Z,8.38
2022-10-04T04:01:36.107Z,12.85
2022-10-04T04:04:36.759Z,8.73
2022-10-04T04:07:12.273Z,9.02
2022-10-04T04:09:52.303Z,17.13
2022-10-04T04:12:54.478Z,11.02
2022-10-04T04:15:21.748Z,11.88
2022-10-04T04:17:52.377Z,8.80
2022-10-04T04:20:41.397Z,9.55
2022-10-04T04:23:33.750Z,8.43
2022-10-04T04:26:40.898Z,9.48
2022-10-04T04:29:24.782Z,12.45
2022-10-04T04:32:13.449Z,9.90
2022-10-04T04:34:53.101Z,8.48
2022-10-04T04:37:20.655Z,10.18
2022-10-04T04:39:52.193Z,11.95
2022-10-04T04:42:32.085Z,13.18
2022-10-04T04:45:22.759Z,7.28
2022-10-04T04:47:53.809Z,8.18
2022-10-04T04:50:23.831Z,7.45
2022-10-04T04:52:54.151Z,8.52
2022-10-04T04:55:24.510Z,14.05
2022-10-04T04:57:55.927Z,11.05
2022-10-04T05:00:28.780Z,9.77
2022-10-04T05:02:58.939Z,4.97
2022-10-04T05:05:32.517Z,9.88
2022-10-04T05:08:24.281Z,10.70
2022-10-04T05:11:16.465Z,8.35
2022-10-04T05:13:53.814Z,8.15
2022-10-04T05:16:42.797Z,13.55
2022-10-04T05:19:18.004Z,13.00
2022-10-04T05:21:49.352Z,7.15
2022-10-04T05:24:37.715Z,9.70
2022-10-04T05:27:08.551Z,12.18
2022-10-04T05:29:39.329Z,12.27
2022-10-04T05:32:44.978Z,10.65
2022-10-04T05:35:20.301Z,8.88
2022-10-04T05:38:05.950Z,12.55
2022-10-04T05:41:04.535Z,9.48
2022-10-04T05:43:44.630Z,9.63
2022-10-04T05:46:44.212Z,5.07
2022-10-04T05:49:18.921Z,21.20
2022-10-04T05:52:01.042Z,9.90
2022-10-04T05:54:31.372Z,12.80
2022-10-04T05:57:40.073Z,8.55
2022-10-04T06:00:12.825Z,10.98
2022-10-04T06:03:36.355Z,10.80
2022-10-04T06:09:14.777Z,10.27
2022-10-04T06:12:02.141Z,10.80
2022-10-04T06:14:44.844Z,4.75
2022-10-04T06:17:38.141Z,9.02
2022-10-04T06:20:56.150Z,13.30
2022-10-04T06:23:25.371Z,10.75
2022-10-04T06:26:00.107Z,7.50
2022-10-04T06:28:35.164Z,7.60
2022-10-04T06:31:41.469Z,8.52
2022-10-04T06:34:44.871Z,10.50
2022-10-04T06:40:36.462Z,13.30
2022-10-04T06:43:36.855Z,9.63
2022-10-04T06:46:17.493Z,9.75
2022-10-04T06:49:05.873Z,15.82
2022-10-04T06:52:05.747Z,10.93
2022-10-04T06:54:47.326Z,8.95
2022-10-04T06:57:39.973Z,15.38
2022-10-04T07:00:48.237Z,10.57
2022-10-04T07:03:27.538Z,4.63
2022-10-04T07:06:05.749Z,6.80
2022-10-04T07:08:52.662Z,7.32
2022-10-04T07:11:46.052Z,10.10
2022-10-04T07:14:18.759Z,8.27
2022-10-04T07:19:45.594Z,8.88
2022-10-04T07:22:22.362Z,7.60
2022-10-04T07:25:19.020Z,11.45
2022-10-04T07:28:36.209Z,11.38
2022-10-04T07:31:13.419Z,7.30
2022-10-04T07:33:48.220Z,6.93
2022-10-04T07:36:25.283Z,10.27
2022-10-04T07:38:59.544Z,9.73
2022-10-04T07:41:36.399Z,12.73
2022-10-04T07:44:52.201Z,7.57
2022-10-04T07:47:21.546Z,9.95
2022-10-04T07:49:51.305Z,5.63
2022-10-04T07:52:45.627Z,8.20
2022-10-04T07:56:10.458Z,15.68
2022-10-04T07:59:18.483Z,11.38
2022-10-04T08:41:19.146Z,10.32
2022-10-04T09:27:36.827Z,6.57
2022-10-04T09:30:21.514Z,18.92
2022-10-04T09:52:53.998Z,16.75
2022-10-04T09:55:32.741Z,7.22
2022-10-04T09:58:46.323Z,7.43
2022-10-04T10:01:38.152Z,5.75
2022-10-04T10:04:54.436Z,9.32
2022-10-04T10:08:03.341Z,9.57
2022-10-04T10:11:19.975Z,7.97
2022-10-04T10:14:42.046Z,12.65
2022-10-04T10:17:45.161Z,7.07
2022-10-04T10:20:59.597Z,3.80
2022-10-04T10:23:46.368Z,11.27
2022-10-04T10:26:42.765Z,5.50
2022-10-04T10:29:32.131Z,6.40
2022-10-04T10:38:50.899Z,4.85
2022-10-04T10:51:10.458Z,4.22
2022-10-04T11:28:29.724Z,7.28
2022-10-04T11:31:18.081Z,2.65
2022-10-04T11:34:02.953Z,3.95
2022-10-04T11:36:54.002Z,4.63
2022-10-04T11:40:01.464Z,2.65
2022-10-04T11:42:52.908Z,4.13
2022-10-04T11:45:51.926Z,5.10
2022-10-04T11:49:26.318Z,3.72
2022-10-04T11:52:50.761Z,4.85
2022-10-04T11:56:11.516Z,7.70
2022-10-04T11:59:05.305Z,5.60
2022-10-04T12:02:27.156Z,5.70
2022-10-04T12:05:42.595Z,5.28
2022-10-04T12:08:33.444Z,3.53
2022-10-04T12:54:38.600Z,2.83
2022-10-04T12:57:41.014Z,2.63
2022-10-04T13:00:37.020Z,5.20
2022-10-04T13:03:44.910Z,4.70
2022-10-04T13:06:28.277Z,3.10
2022-10-04T13:09:48.577Z,7.05
2022-10-04T13:12:33.724Z,5.68
2022-10-04T13:17:25.175Z,4.15
2022-10-04T13:18:32.793Z,6.15
2022-10-04T13:21:09.154Z,5.10
2022-10-04T13:24:12.262Z,2.50
2022-10-04T13:38:58.761Z,1.65
2022-10-04T14:08:04.169Z,3.08
2022-10-04T14:11:09.214Z,1.98
2022-10-04T14:14:09.738Z,6.38
2022-10-04T14:21:01.840Z,3.63
2022-10-04T14:27:37.946Z,2.80
2022-10-04T15:09:38.464Z,3.65
2022-10-04T15:13:09.930Z,6.47
2022-10-04T15:16:14.978Z,1.83
2022-10-04T15:18:54.133Z,3.70
2022-10-04T15:21:20.913Z,1.13
2022-10-04T15:23:55.259Z,4.85
2022-10-04T15:27:04.995Z,3.13
2022-10-04T15:29:51.616Z,5.55
2022-10-04T15:33:00.274Z,4.55
2022-10-04T15:35:41.216Z,4.18
2022-10-04T15:38:32.728Z,3.92
2022-10-04T15:41:16.592Z,1.85
2022-10-04T15:44:06.034Z,6.63
2022-10-04T15:46:46.295Z,2.92
2022-10-04T15:49:38.147Z,3.45
2022-10-04T15:52:35.991Z,4.32
2022-10-04T15:55:17.170Z,1.73
2022-10-04T15:58:33.875Z,2.33
2022-10-04T16:01:33.947Z,4.35
2022-10-04T16:04:33.295Z,2.40
2022-10-04T16:07:35.610Z,6.00
2022-10-04T16:10:27.466Z,2.85
2022-10-04T16:13:35.771Z,5.97
2022-10-04T16:16:34.511Z,3.60
2022-10-04T16:19:35.880Z,3.47
2022-10-04T16:22:16.106Z,3.80
2022-10-04T16:25:38.538Z,2.20
2022-10-04T16:28:35.341Z,4.00
2022-10-04T16:31:24.855Z,4.82
2022-10-04T16:34:25.030Z,6.57
2022-10-04T16:36:58.779Z,6.13
2022-10-04T16:40:08.185Z,4.35
2022-10-04T16:42:49.832Z,4.95
2022-10-04T17:15:49.062Z,33.72
2022-10-04T17:25:04.393Z,11.93
2022-10-04T17:27:51.794Z,11.80
2022-10-04T17:30:24.456Z,13.82
2022-10-04T17:33:58.506Z,14.20
2022-10-04T17:36:45.224Z,13.70
2022-10-04T17:45:46.725Z,4.65
2022-10-04T17:48:59.894Z,7.32
2022-10-04T17:51:52.770Z,11.98
2022-10-04T17:57:19.895Z,6.75
2022-10-04T17:59:52.846Z,7.65
2022-10-04T18:02:42.378Z,10.73
2022-10-04T18:05:47.215Z,4.00
2022-10-04T18:08:42.843Z,6.10
2022-10-04T18:11:43.746Z,6.00
2022-10-04T18:14:46.095Z,6.43
2022-10-04T18:17:30.651Z,5.53
2022-10-04T18:20:07.019Z,6.60
2022-10-04T18:22:49.836Z,9.10
2022-10-04T18:25:26.694Z,9.73
2022-10-04T18:28:29.951Z,10.32
2022-10-04T18:31:00.349Z,11.52
2022-10-04T18:33:58.070Z,10.60
2022-10-04T18:36:31.848Z,7.75
2022-10-04T18:39:33.708Z,13.32
2022-10-04T18:42:23.427Z,7.22
2022-10-04T18:45:01.690Z,9.35
2022-10-04T18:47:41.316Z,10.90
2022-10-04T18:50:39.250Z,13.18
2022-10-04T18:53:47.631Z,11.40
2022-10-04T18:56:15.522Z,10.60
2022-10-04T18:59:37.864Z,12.10
2022-10-04T19:02:24.692Z,11.02
2022-10-04T19:05:06.764Z,9.65
2022-10-04T19:07:58.779Z,8.52
2022-10-04T19:10:51.203Z,15.17
2022-10-04T19:13:52.991Z,18.55
2022-10-04T19:39:44.188Z,82.00
2022-10-04T19:42:46.574Z,64.70
2022-10-04T19:45:56.026Z,28.13
2022-10-04T19:48:27.511Z,27.52
2022-10-04T19:51:08.979Z,26.33
2022-10-04T19:53:43.223Z,24.98
2022-10-04T19:56:20.667Z,22.40
2022-10-04T19:59:04.931Z,14.75
2022-10-04T20:01:32.197Z,14.65
2022-10-04T20:04:17.549Z,16.10
2022-10-04T20:07:17.471Z,35.17
2022-10-04T20:09:54.573Z,111.40
2022-10-04T20:12:37.668Z,89.75
2022-10-04T20:15:44.437Z,61.35
2022-10-04T20:18:51.211Z,35.58
2022-10-04T20:21:26.501Z,24.95
2022-10-04T20:23:57.004Z,20.90
2022-10-04T20:26:56.039Z,10.98
2022-10-04T20:30:04.290Z,13.88
2022-10-04T20:32:54.211Z,10.10
2022-10-04T20:36:14.387Z,13.05
2022-10-04T20:39:04.971Z,11.65
2022-10-04T20:42:34.329Z,7.78
2022-10-04T20:45:03.706Z,10.32
2022-10-04T20:47:54.938Z,14.13
2022-10-04T20:50:39.908Z,8.38
2022-10-04T20:53:15.353Z,6.75
2022-10-04T20:55:44.219Z,8.70
2022-10-04T20:58:35.180Z,9.30
2022-10-04T21:01:41.304Z,43.67
2022-10-04T21:04:54.810Z,23.77
2022-10-04T21:07:26.714Z,17.75
2022-10-04T21:09:54.648Z,15.68
2022-10-04T21:12:39.228Z,13.27
2022-10-04T21:15:26.165Z,15.85
2022-10-04T21:18:10.933Z,14.05
2022-10-04T21:20:49.039Z,8.48
2022-10-04T21:23:34.112Z,8.80
2022-10-04T21:26:23.344Z,10.85
2022-10-04T21:28:57.258Z,9.68
2022-10-04T21:31:24.635Z,7.25
2022-10-04T21:33:51.281Z,7.25
2022-10-04T21:36:17.946Z,7.18
2022-10-04T21:38:44.635Z,7.82
2022-10-04T21:41:11.239Z,6.43
2022-10-04T21:43:37.832Z,11.00
2022-10-04T21:46:04.502Z,9.30
2022-10-04T21:48:31.155Z,9.60
2022-10-04T21:50:57.996Z,9.50
2022-10-04T21:53:24.669Z,5.47
2022-10-04T21:55:51.237Z,12.32
2022-10-04T21:58:17.871Z,6.45
2022-10-04T22:00:44.440Z,9.90
2022-10-04T22:03:11.095Z,7.20
2022-10-04T22:05:37.783Z,9.18
2022-10-04T22:08:04.543Z,8.23
2022-10-04T22:10:31.264Z,5.13
2022-10-04T22:12:57.883Z,11.95
2022-10-04T22:15:26.571Z,5.10
2022-10-04T22:17:53.623Z,13.57
2022-10-04T22:20:20.567Z,8.93
2022-10-04T22:22:47.186Z,9.00
2022-10-04T22:25:19.489Z,14.30
2022-10-04T22:27:47.404Z,10.43
2022-10-04T22:30:27.052Z,6.57
2022-10-04T22:32:56.038Z,6.15
2022-10-04T22:35:22.985Z,12.27
2022-10-04T22:37:49.913Z,5.50
2022-10-04T22:40:23.062Z,8.98
2022-10-04T22:42:55.810Z,9.50
2022-10-04T22:45:25.625Z,6.75
2022-10-04T22:47:53.477Z,10.93
2022-10-04T22:50:35.923Z,7.07
2022-10-04T22:53:16.156Z,11.23
2022-10-04T22:55:43.061Z,10.85
2022-10-04T22:58:16.313Z,6.43
2022-10-04T23:00:44.777Z,5.07
2022-10-04T23:03:47.211Z,6.00
2022-10-04T23:06:14.437Z,5.05
2022-10-04T23:08:42.041Z,5.25
2022-10-04T23:11:11.679Z,6.35
2022-10-04T23:13:38.614Z,7.40
2022-10-04T23:16:14.441Z,6.70
2022-10-04T23:18:41.443Z,5.35
2022-10-04T23:21:34.943Z,7.47
2022-10-04T23:24:22.286Z,8.73
2022-10-04T23:26:56.472Z,10.18
2022-10-04T23:29:29.519Z,6.72
2022-10-04T23:31:57.615Z,7.90
2022-10-04T23:34:33.331Z,7.22
2022-10-04T23:37:00.297Z,9.98
2022-10-04T23:39:30.646Z,6.90
2022-10-04T23:41:57.971Z,7.10
2022-10-04T23:44:30.064Z,5.95
2022-10-04T23:46:56.669Z,6.10
2022-10-04T23:49:23.585Z,5.85
2022-10-04T23:51:58.322Z,12.32
2022-10-04T23:54:26.462Z,6.72
2022-10-04T23:56:53.442Z,6.80
2022-10-04T23:59:23.722Z,15.00
